sensor_id;sensor_type;location;lat;lon;timestamp;P1;P2;P0
24012;PMS7003;12220;50.194;18.948;2023-01-19T00:00:19;46;38;26
24012;PMS7003;12220;50.194;18.948;2023-01-19T00:02:32;46;38;24
24012;PMS7003;12220;50.194;18.948;2023-01-19T00:04:33;45;38;24
24012;PMS7003;12220;50.194;18.948;2023-01-19T00:06:35;44;33;22
24012;PMS7003;12220;50.194;18.948;2023-01-19T00:08:37;57;46;27
24012;PMS7003;12220;50.194;18.948;2023-01-19T00:10:44;58;44;29
24012;PMS7003;12220;50.194;18.948;2023-01-19T00:12:48;60;42;27
24012;PMS7003;12220;50.194;18.948;2023-01-19T00:14:50;61;48;31
24012;PMS7003;12220;50.194;18.948;2023-01-19T00:16:51;66;47;29
24012;PMS7003;12220;50.194;18.948;2023-01-19T00:19:00;58;47;29
24012;PMS7003;12220;50.194;18.948;2023-01-19T00:21:01;61;49;31
24012;PMS7003;12220;50.194;18.948;2023-01-19T00:23:03;67;51;32
24012;PMS7003;12220;50.194;18.948;2023-01-19T00:25:07;61;48;30
24012;PMS7003;12220;50.194;18.948;2023-01-19T00:27:15;60;47;29
24012;PMS7003;12220;50.194;18.948;2023-01-19T00:29:17;71;52;31
24012;PMS7003;12220;50.194;18.948;2023-01-19T00:31:20;60;50;31
24012;PMS7003;12220;50.194;18.948;2023-01-19T00:33:21;50;42;25
24012;PMS7003;12220;50.194;18.948;2023-01-19T00:35:30;61;46;28
24012;PMS7003;12220;50.194;18.948;2023-01-19T00:37:33;59;47;30
24012;PMS7003;12220;50.194;18.948;2023-01-19T00:39:35;60;48;29
24012;PMS7003;12220;50.194;18.948;2023-01-19T00:41:37;63;48;31
24012;PMS7003;12220;50.194;18.948;2023-01-19T00:43:50;50;40;27
24012;PMS7003;12220;50.194;18.948;2023-01-19T00:45:51;52;42;27
24012;PMS7003;12220;50.194;18.948;2023-01-19T00:47:53;53;42;27
24012;PMS7003;12220;50.194;18.948;2023-01-19T00:49:56;53;43;28
24012;PMS7003;12220;50.194;18.948;2023-01-19T00:52:01;53;43;25
24012;PMS7003;12220;50.194;18.948;2023-01-19T00:54:02;46;38;24
24012;PMS7003;12220;50.194;18.948;2023-01-19T00:56:04;47;38;24
24012;PMS7003;12220;50.194;18.948;2023-01-19T00:58:06;41;35;23
24012;PMS7003;12220;50.194;18.948;2023-01-19T01:00:17;47;38;25
24012;PMS7003;12220;50.194;18.948;2023-01-19T01:02:22;54;43;25
24012;PMS7003;12220;50.194;18.948;2023-01-19T01:04:23;52;42;27
24012;PMS7003;12220;50.194;18.948;2023-01-19T01:06:25;58;44;28
24012;PMS7003;12220;50.194;18.948;2023-01-19T01:08:31;45;36;22
24012;PMS7003;12220;50.194;18.948;2023-01-19T01:10:35;50;39;25
24012;PMS7003;12220;50.194;18.948;2023-01-19T01:12:37;51;39;24
24012;PMS7003;12220;50.194;18.948;2023-01-19T01:14:39;41;36;24
24012;PMS7003;12220;50.194;18.948;2023-01-19T01:16:46;46;38;24
24012;PMS7003;12220;50.194;18.948;2023-01-19T01:18:48;46;40;21
24012;PMS7003;12220;50.194;18.948;2023-01-19T01:20:50;55;42;27
24012;PMS7003;12220;50.194;18.948;2023-01-19T01:22:51;52;42;28
24012;PMS7003;12220;50.194;18.948;2023-01-19T01:25:02;55;44;29
24012;PMS7003;12220;50.194;18.948;2023-01-19T01:27:03;55;45;29
24012;PMS7003;12220;50.194;18.948;2023-01-19T01:29:11;54;43;30
24012;PMS7003;12220;50.194;18.948;2023-01-19T01:31:12;60;47;30
24012;PMS7003;12220;50.194;18.948;2023-01-19T01:33:17;63;48;29
24012;PMS7003;12220;50.194;18.948;2023-01-19T01:35:22;65;49;30
24012;PMS7003;12220;50.194;18.948;2023-01-19T01:37:23;64;47;29
24012;PMS7003;12220;50.194;18.948;2023-01-19T01:39:25;61;49;30
24012;PMS7003;12220;50.194;18.948;2023-01-19T01:41:32;59;45;28
24012;PMS7003;12220;50.194;18.948;2023-01-19T01:45:48;56;44;27
24012;PMS7003;12220;50.194;18.948;2023-01-19T01:47:50;52;41;27
24012;PMS7003;12220;50.194;18.948;2023-01-19T01:49:55;43;35;22
24012;PMS7003;12220;50.194;18.948;2023-01-19T01:52:03;47;40;25
24012;PMS7003;12220;50.194;18.948;2023-01-19T01:56:18;46;37;23
24012;PMS7003;12220;50.194;18.948;2023-01-19T01:58:24;34;31;23
24012;PMS7003;12220;50.194;18.948;2023-01-19T02:00:31;43;32;22
24012;PMS7003;12220;50.194;18.948;2023-01-19T02:02:52;43;34;23
24012;PMS7003;12220;50.194;18.948;2023-01-19T02:04:56;40;32;20
24012;PMS7003;12220;50.194;18.948;2023-01-19T02:07:03;31;29;20
24012;PMS7003;12220;50.194;18.948;2023-01-19T02:09:17;37;31;19
24012;PMS7003;12220;50.194;18.948;2023-01-19T02:11:30;39;31;21
24012;PMS7003;12220;50.194;18.948;2023-01-19T02:13:44;37;26;18
24012;PMS7003;12220;50.194;18.948;2023-01-19T02:15:56;35;28;19
24012;PMS7003;12220;50.194;18.948;2023-01-19T02:18:13;31;27;17
24012;PMS7003;12220;50.194;18.948;2023-01-19T02:20:21;37;31;21
24012;PMS7003;12220;50.194;18.948;2023-01-19T02:22:30;35;31;20
24012;PMS7003;12220;50.194;18.948;2023-01-19T02:24:39;38;33;20
24012;PMS7003;12220;50.194;18.948;2023-01-19T02:26:42;39;34;22
24012;PMS7003;12220;50.194;18.948;2023-01-19T02:28:57;30;28;16
24012;PMS7003;12220;50.194;18.948;2023-01-19T02:31:02;33;29;20
24012;PMS7003;12220;50.194;18.948;2023-01-19T02:33:03;41;30;18
24012;PMS7003;12220;50.194;18.948;2023-01-19T02:35:05;34;29;18
24012;PMS7003;12220;50.194;18.948;2023-01-19T02:37:10;43;32;19
24012;PMS7003;12220;50.194;18.948;2023-01-19T02:39:13;37;33;18
24012;PMS7003;12220;50.194;18.948;2023-01-19T02:41:23;33;28;20
24012;PMS7003;12220;50.194;18.948;2023-01-19T02:43:28;33;29;19
24012;PMS7003;12220;50.194;18.948;2023-01-19T02:45:31;40;31;20
24012;PMS7003;12220;50.194;18.948;2023-01-19T02:47:46;41;33;20
24012;PMS7003;12220;50.194;18.948;2023-01-19T02:49:56;41;36;20
24012;PMS7003;12220;50.194;18.948;2023-01-19T02:51:59;38;34;23
24012;PMS7003;12220;50.194;18.948;2023-01-19T02:54:05;33;31;20
24012;PMS7003;12220;50.194;18.948;2023-01-19T02:58:38;39;32;22
24012;PMS7003;12220;50.194;18.948;2023-01-19T03:00:57;36;30;20
24012;PMS7003;12220;50.194;18.948;2023-01-19T03:03:17;35;30;20
24012;PMS7003;12220;50.194;18.948;2023-01-19T03:05:32;36;32;21
24012;PMS7003;12220;50.194;18.948;2023-01-19T03:10:19;37;34;22
24012;PMS7003;12220;50.194;18.948;2023-01-19T03:14:58;32;29;21
24012;PMS7003;12220;50.194;18.948;2023-01-19T03:17:17;34;29;19
24012;PMS7003;12220;50.194;18.948;2023-01-19T03:19:26;33;29;19
24012;PMS7003;12220;50.194;18.948;2023-01-19T03:21:38;43;33;20
24012;PMS7003;12220;50.194;18.948;2023-01-19T03:23:45;31;30;21
24012;PMS7003;12220;50.194;18.948;2023-01-19T03:25:50;33;30;19
24012;PMS7003;12220;50.194;18.948;2023-01-19T03:28:04;33;30;19
24012;PMS7003;12220;50.194;18.948;2023-01-19T03:30:10;35;30;19
24012;PMS7003;12220;50.194;18.948;2023-01-19T03:32:19;36;32;20
24012;PMS7003;12220;50.194;18.948;2023-01-19T03:34:29;35;31;21
24012;PMS7003;12220;50.194;18.948;2023-01-19T03:36:33;35;29;19
24012;PMS7003;12220;50.194;18.948;2023-01-19T03:38:45;33;30;19
24012;PMS7003;12220;50.194;18.948;2023-01-19T03:40:51;43;35;21
24012;PMS7003;12220;50.194;18.948;2023-01-19T03:42:59;31;26;18
24012;PMS7003;12220;50.194;18.948;2023-01-19T03:45:02;34;26;16
24012;PMS7003;12220;50.194;18.948;2023-01-19T03:47:08;31;27;19
24012;PMS7003;12220;50.194;18.948;2023-01-19T03:49:12;32;29;20
24012;PMS7003;12220;50.194;18.948;2023-01-19T03:51:14;34;30;21
24012;PMS7003;12220;50.194;18.948;2023-01-19T03:53:19;27;24;16
24012;PMS7003;12220;50.194;18.948;2023-01-19T03:55:22;34;31;21
24012;PMS7003;12220;50.194;18.948;2023-01-19T03:57:23;40;30;22
24012;PMS7003;12220;50.194;18.948;2023-01-19T03:59:30;27;27;19
24012;PMS7003;12220;50.194;18.948;2023-01-19T04:01:41;26;24;14
24012;PMS7003;12220;50.194;18.948;2023-01-19T04:03:45;32;28;19
24012;PMS7003;12220;50.194;18.948;2023-01-19T04:05:57;36;29;16
24012;PMS7003;12220;50.194;18.948;2023-01-19T04:07:59;38;31;16
24012;PMS7003;12220;50.194;18.948;2023-01-19T04:10:01;35;28;19
24012;PMS7003;12220;50.194;18.948;2023-01-19T04:12:02;30;27;18
24012;PMS7003;12220;50.194;18.948;2023-01-19T04:14:12;33;27;17
24012;PMS7003;12220;50.194;18.948;2023-01-19T04:16:14;34;26;20
24012;PMS7003;12220;50.194;18.948;2023-01-19T04:18:22;39;33;19
24012;PMS7003;12220;50.194;18.948;2023-01-19T04:20:28;38;29;19
24012;PMS7003;12220;50.194;18.948;2023-01-19T04:22:34;23;20;16
24012;PMS7003;12220;50.194;18.948;2023-01-19T04:24:49;37;31;20
24012;PMS7003;12220;50.194;18.948;2023-01-19T04:26:51;29;29;21
24012;PMS7003;12220;50.194;18.948;2023-01-19T04:28:53;41;33;20
24012;PMS7003;12220;50.194;18.948;2023-01-19T04:30:54;39;30;19
24012;PMS7003;12220;50.194;18.948;2023-01-19T04:33:04;37;28;17
24012;PMS7003;12220;50.194;18.948;2023-01-19T04:35:06;40;29;20
24012;PMS7003;12220;50.194;18.948;2023-01-19T04:37:08;41;32;20
24012;PMS7003;12220;50.194;18.948;2023-01-19T04:39:10;34;29;18
24012;PMS7003;12220;50.194;18.948;2023-01-19T04:41:19;32;30;19
24012;PMS7003;12220;50.194;18.948;2023-01-19T04:43:21;36;28;20
24012;PMS7003;12220;50.194;18.948;2023-01-19T04:45:23;47;35;22
24012;PMS7003;12220;50.194;18.948;2023-01-19T04:47:27;39;31;21
24012;PMS7003;12220;50.194;18.948;2023-01-19T04:49:34;33;29;20
24012;PMS7003;12220;50.194;18.948;2023-01-19T04:51:37;38;32;20
24012;PMS7003;12220;50.194;18.948;2023-01-19T04:53:38;43;35;19
24012;PMS7003;12220;50.194;18.948;2023-01-19T04:55:40;36;29;20
24012;PMS7003;12220;50.194;18.948;2023-01-19T04:57:50;41;33;22
24012;PMS7003;12220;50.194;18.948;2023-01-19T04:59:51;30;24;19
24012;PMS7003;12220;50.194;18.948;2023-01-19T05:01:57;25;24;16
24012;PMS7003;12220;50.194;18.948;2023-01-19T05:04:03;39;33;20
24012;PMS7003;12220;50.194;18.948;2023-01-19T05:06:16;42;31;20
24012;PMS7003;12220;50.194;18.948;2023-01-19T05:08:27;27;26;17
24012;PMS7003;12220;50.194;18.948;2023-01-19T05:10:29;38;34;21
24012;PMS7003;12220;50.194;18.948;2023-01-19T05:12:30;36;32;19
24012;PMS7003;12220;50.194;18.948;2023-01-19T05:14:32;38;31;20
24012;PMS7003;12220;50.194;18.948;2023-01-19T05:16:42;42;35;22
24012;PMS7003;12220;50.194;18.948;2023-01-19T05:18:44;36;33;23
24012;PMS7003;12220;50.194;18.948;2023-01-19T05:20:45;35;31;21
24012;PMS7003;12220;50.194;18.948;2023-01-19T05:22:47;41;34;23
24012;PMS7003;12220;50.194;18.948;2023-01-19T05:24:57;35;31;19
24012;PMS7003;12220;50.194;18.948;2023-01-19T05:27:01;39;35;22
24012;PMS7003;12220;50.194;18.948;2023-01-19T05:29:02;37;29;20
24012;PMS7003;12220;50.194;18.948;2023-01-19T05:31:04;35;32;18
24012;PMS7003;12220;50.194;18.948;2023-01-19T05:33:13;38;30;19
24012;PMS7003;12220;50.194;18.948;2023-01-19T05:35:17;43;33;20
24012;PMS7003;12220;50.194;18.948;2023-01-19T05:37:18;32;27;19
24012;PMS7003;12220;50.194;18.948;2023-01-19T05:39:20;39;32;20
24012;PMS7003;12220;50.194;18.948;2023-01-19T05:41:28;35;29;19
24012;PMS7003;12220;50.194;18.948;2023-01-19T05:43:30;28;28;20
24012;PMS7003;12220;50.194;18.948;2023-01-19T05:45:32;35;28;20
24012;PMS7003;12220;50.194;18.948;2023-01-19T05:47:34;41;29;17
24012;PMS7003;12220;50.194;18.948;2023-01-19T05:49:43;31;27;17
24012;PMS7003;12220;50.194;18.948;2023-01-19T05:51:44;37;33;22
24012;PMS7003;12220;50.194;18.948;2023-01-19T05:53:46;48;36;21
24012;PMS7003;12220;50.194;18.948;2023-01-19T05:55:47;44;33;22
24012;PMS7003;12220;50.194;18.948;2023-01-19T05:57:58;44;36;23
24012;PMS7003;12220;50.194;18.948;2023-01-19T06:00:01;46;39;24
24012;PMS7003;12220;50.194;18.948;2023-01-19T06:02:04;40;34;23
24012;PMS7003;12220;50.194;18.948;2023-01-19T06:04:06;52;39;24
24012;PMS7003;12220;50.194;18.948;2023-01-19T06:06:13;31;24;17
24012;PMS7003;12220;50.194;18.948;2023-01-19T06:08:15;26;21;9
24012;PMS7003;12220;50.194;18.948;2023-01-19T06:10:19;35;33;22
24012;PMS7003;12220;50.194;18.948;2023-01-19T06:12:21;45;34;23
24012;PMS7003;12220;50.194;18.948;2023-01-19T06:14:29;44;39;25
24012;PMS7003;12220;50.194;18.948;2023-01-19T06:16:31;51;40;24
24012;PMS7003;12220;50.194;18.948;2023-01-19T06:18:36;55;43;25
24012;PMS7003;12220;50.194;18.948;2023-01-19T06:20:38;48;40;25
24012;PMS7003;12220;50.194;18.948;2023-01-19T06:22:44;49;38;25
24012;PMS7003;12220;50.194;18.948;2023-01-19T06:24:47;51;39;25
24012;PMS7003;12220;50.194;18.948;2023-01-19T06:26:48;51;42;26
24012;PMS7003;12220;50.194;18.948;2023-01-19T06:28:50;44;37;23
24012;PMS7003;12220;50.194;18.948;2023-01-19T06:30:59;54;43;25
24012;PMS7003;12220;50.194;18.948;2023-01-19T06:33:01;52;41;26
24012;PMS7003;12220;50.194;18.948;2023-01-19T06:35:03;46;40;25
24012;PMS7003;12220;50.194;18.948;2023-01-19T06:37:05;52;40;27
24012;PMS7003;12220;50.194;18.948;2023-01-19T06:39:14;47;39;24
24012;PMS7003;12220;50.194;18.948;2023-01-19T06:41:16;52;38;23
24012;PMS7003;12220;50.194;18.948;2023-01-19T06:43:17;46;37;22
24012;PMS7003;12220;50.194;18.948;2023-01-19T06:45:20;47;39;25
24012;PMS7003;12220;50.194;18.948;2023-01-19T06:47:29;55;42;26
24012;PMS7003;12220;50.194;18.948;2023-01-19T06:49:33;40;35;25
24012;PMS7003;12220;50.194;18.948;2023-01-19T06:51:38;52;41;25
24012;PMS7003;12220;50.194;18.948;2023-01-19T06:53:39;57;43;28
24012;PMS7003;12220;50.194;18.948;2023-01-19T06:55:45;60;45;28
24012;PMS7003;12220;50.194;18.948;2023-01-19T06:57:46;60;44;26
24012;PMS7003;12220;50.194;18.948;2023-01-19T06:59:48;59;45;27
24012;PMS7003;12220;50.194;18.948;2023-01-19T07:01:49;63;48;30
24012;PMS7003;12220;50.194;18.948;2023-01-19T07:04:00;57;45;28
24012;PMS7003;12220;50.194;18.948;2023-01-19T07:06:01;58;45;30
24012;PMS7003;12220;50.194;18.948;2023-01-19T07:08:06;60;47;28
24012;PMS7003;12220;50.194;18.948;2023-01-19T07:10:08;58;48;30
24012;PMS7003;12220;50.194;18.948;2023-01-19T07:12:15;55;44;29
24012;PMS7003;12220;50.194;18.948;2023-01-19T07:14:17;60;46;29
24012;PMS7003;12220;50.194;18.948;2023-01-19T07:16:20;62;48;29
24012;PMS7003;12220;50.194;18.948;2023-01-19T07:18:21;69;53;33
24012;PMS7003;12220;50.194;18.948;2023-01-19T07:20:30;68;50;33
24012;PMS7003;12220;50.194;18.948;2023-01-19T07:22:33;58;48;29
24012;PMS7003;12220;50.194;18.948;2023-01-19T07:24:34;69;52;30
24012;PMS7003;12220;50.194;18.948;2023-01-19T07:28:46;56;46;28
24012;PMS7003;12220;50.194;18.948;2023-01-19T07:30:51;57;45;29
24012;PMS7003;12220;50.194;18.948;2023-01-19T07:32:54;66;51;32
24012;PMS7003;12220;50.194;18.948;2023-01-19T07:34:57;58;46;31
24012;PMS7003;12220;50.194;18.948;2023-01-19T07:37:01;59;45;28
24012;PMS7003;12220;50.194;18.948;2023-01-19T07:39:08;47;36;20
24012;PMS7003;12220;50.194;18.948;2023-01-19T07:41:10;59;45;28
24012;PMS7003;12220;50.194;18.948;2023-01-19T07:43:12;55;44;28
24012;PMS7003;12220;50.194;18.948;2023-01-19T07:45:16;59;45;27
24012;PMS7003;12220;50.194;18.948;2023-01-19T07:47:20;64;50;32
24012;PMS7003;12220;50.194;18.948;2023-01-19T07:49:21;69;53;33
24012;PMS7003;12220;50.194;18.948;2023-01-19T07:51:44;67;50;33
24012;PMS7003;12220;50.194;18.948;2023-01-19T07:53:37;67;51;31
24012;PMS7003;12220;50.194;18.948;2023-01-19T07:55:41;65;51;31
24012;PMS7003;12220;50.194;18.948;2023-01-19T07:57:43;64;51;31
24012;PMS7003;12220;50.194;18.948;2023-01-19T07:59:53;69;51;33
24012;PMS7003;12220;50.194;18.948;2023-01-19T08:01:55;71;55;34
24012;PMS7003;12220;50.194;18.948;2023-01-19T08:03:59;69;52;33
24012;PMS7003;12220;50.194;18.948;2023-01-19T08:06:00;61;50;31
24012;PMS7003;12220;50.194;18.948;2023-01-19T08:08:04;64;49;30
24012;PMS7003;12220;50.194;18.948;2023-01-19T08:10:06;62;48;30
24012;PMS7003;12220;50.194;18.948;2023-01-19T08:12:08;56;45;30
24012;PMS7003;12220;50.194;18.948;2023-01-19T08:14:10;57;48;30
24012;PMS7003;12220;50.194;18.948;2023-01-19T08:16:12;62;49;30
24012;PMS7003;12220;50.194;18.948;2023-01-19T08:18:20;62;48;29
24012;PMS7003;12220;50.194;18.948;2023-01-19T08:20:22;67;50;29
24012;PMS7003;12220;50.194;18.948;2023-01-19T08:22:24;60;48;28
24012;PMS7003;12220;50.194;18.948;2023-01-19T08:24:25;56;45;27
24012;PMS7003;12220;50.194;18.948;2023-01-19T08:26:36;59;45;28
24012;PMS7003;12220;50.194;18.948;2023-01-19T08:28:41;57;45;28
24012;PMS7003;12220;50.194;18.948;2023-01-19T08:30:43;52;42;27
24012;PMS7003;12220;50.194;18.948;2023-01-19T08:32:45;48;39;26
24012;PMS7003;12220;50.194;18.948;2023-01-19T08:34:51;50;41;26
24012;PMS7003;12220;50.194;18.948;2023-01-19T08:36:52;56;46;30
24012;PMS7003;12220;50.194;18.948;2023-01-19T08:38:54;56;42;26
24012;PMS7003;12220;50.194;18.948;2023-01-19T08:40:56;51;41;28
24012;PMS7003;12220;50.194;18.948;2023-01-19T08:43:15;55;43;27
24012;PMS7003;12220;50.194;18.948;2023-01-19T08:45:15;50;39;25
24012;PMS7003;12220;50.194;18.948;2023-01-19T08:47:16;43;37;25
24012;PMS7003;12220;50.194;18.948;2023-01-19T08:49:18;51;39;24
24012;PMS7003;12220;50.194;18.948;2023-01-19T08:51:22;52;39;25
24012;PMS7003;12220;50.194;18.948;2023-01-19T08:53:24;62;46;28
24012;PMS7003;12220;50.194;18.948;2023-01-19T08:55:26;53;42;26
24012;PMS7003;12220;50.194;18.948;2023-01-19T08:57:29;45;37;26
24012;PMS7003;12220;50.194;18.948;2023-01-19T08:59:37;59;45;29
24012;PMS7003;12220;50.194;18.948;2023-01-19T09:01:38;58;47;28
24012;PMS7003;12220;50.194;18.948;2023-01-19T09:03:41;59;46;29
24012;PMS7003;12220;50.194;18.948;2023-01-19T09:05:46;58;41;27
24012;PMS7003;12220;50.194;18.948;2023-01-19T09:07:52;53;40;25
24012;PMS7003;12220;50.194;18.948;2023-01-19T09:09:53;50;41;24
24012;PMS7003;12220;50.194;18.948;2023-01-19T09:11:55;58;43;26
24012;PMS7003;12220;50.194;18.948;2023-01-19T09:13:59;54;42;27
24012;PMS7003;12220;50.194;18.948;2023-01-19T09:16:07;49;36;24
24012;PMS7003;12220;50.194;18.948;2023-01-19T09:18:15;51;39;26
24012;PMS7003;12220;50.194;18.948;2023-01-19T09:20:19;46;37;23
24012;PMS7003;12220;50.194;18.948;2023-01-19T09:22:23;54;41;24
24012;PMS7003;12220;50.194;18.948;2023-01-19T09:24:25;56;44;25
24012;PMS7003;12220;50.194;18.948;2023-01-19T09:26:26;49;40;24
24012;PMS7003;12220;50.194;18.948;2023-01-19T09:28:28;52;42;27
24012;PMS7003;12220;50.194;18.948;2023-01-19T09:30:30;60;44;27
24012;PMS7003;12220;50.194;18.948;2023-01-19T09:32:40;55;43;25
24012;PMS7003;12220;50.194;18.948;2023-01-19T09:34:42;52;40;25
24012;PMS7003;12220;50.194;18.948;2023-01-19T09:36:45;57;43;27
24012;PMS7003;12220;50.194;18.948;2023-01-19T09:38:47;50;37;24
24012;PMS7003;12220;50.194;18.948;2023-01-19T09:40:55;49;40;24
24012;PMS7003;12220;50.194;18.948;2023-01-19T09:45:13;58;43;26
24012;PMS7003;12220;50.194;18.948;2023-01-19T09:47:22;47;39;23
24012;PMS7003;12220;50.194;18.948;2023-01-19T09:49:32;53;43;25
24012;PMS7003;12220;50.194;18.948;2023-01-19T09:51:40;56;43;25
24012;PMS7003;12220;50.194;18.948;2023-01-19T09:53:55;54;43;24
24012;PMS7003;12220;50.194;18.948;2023-01-19T09:55:58;59;41;24
24012;PMS7003;12220;50.194;18.948;2023-01-19T09:58:02;39;34;22
24012;PMS7003;12220;50.194;18.948;2023-01-19T10:02:27;48;39;23
24012;PMS7003;12220;50.194;18.948;2023-01-19T10:11:51;46;38;20
24012;PMS7003;12220;50.194;18.948;2023-01-19T10:14:31;55;36;23
24012;PMS7003;12220;50.194;18.948;2023-01-19T10:16:36;47;37;18
24012;PMS7003;12220;50.194;18.948;2023-01-19T10:18:56;41;32;19
24012;PMS7003;12220;50.194;18.948;2023-01-19T10:23:20;52;38;20
24012;PMS7003;12220;50.194;18.948;2023-01-19T10:25:27;39;33;19
24012;PMS7003;12220;50.194;18.948;2023-01-19T10:27:29;38;32;20
24012;PMS7003;12220;50.194;18.948;2023-01-19T10:29:45;48;36;19
24012;PMS7003;12220;50.194;18.948;2023-01-19T10:31:47;47;36;20
24012;PMS7003;12220;50.194;18.948;2023-01-19T10:33:52;45;33;22
24012;PMS7003;12220;50.194;18.948;2023-01-19T10:35:54;47;36;21
24012;PMS7003;12220;50.194;18.948;2023-01-19T10:37:59;55;39;23
24012;PMS7003;12220;50.194;18.948;2023-01-19T10:42:15;40;31;19
24012;PMS7003;12220;50.194;18.948;2023-01-19T10:44:22;42;33;20
24012;PMS7003;12220;50.194;18.948;2023-01-19T10:48:41;47;36;21
24012;PMS7003;12220;50.194;18.948;2023-01-19T10:50:43;48;35;19
24012;PMS7003;12220;50.194;18.948;2023-01-19T10:52:45;46;32;20
24012;PMS7003;12220;50.194;18.948;2023-01-19T10:54:51;44;33;20
24012;PMS7003;12220;50.194;18.948;2023-01-19T10:56:57;51;39;21
24012;PMS7003;12220;50.194;18.948;2023-01-19T10:59:04;46;36;20
24012;PMS7003;12220;50.194;18.948;2023-01-19T11:05:32;47;37;21
24012;PMS7003;12220;50.194;18.948;2023-01-19T11:07:35;53;39;23
24012;PMS7003;12220;50.194;18.948;2023-01-19T11:09:38;50;34;20
24012;PMS7003;12220;50.194;18.948;2023-01-19T11:11:40;46;34;20
24012;PMS7003;12220;50.194;18.948;2023-01-19T11:16:05;45;31;17
24012;PMS7003;12220;50.194;18.948;2023-01-19T11:20:39;47;35;21
24012;PMS7003;12220;50.194;18.948;2023-01-19T11:27:36;52;39;23
24012;PMS7003;12220;50.194;18.948;2023-01-19T11:29:37;49;37;24
24012;PMS7003;12220;50.194;18.948;2023-01-19T11:31:39;60;43;24
24012;PMS7003;12220;50.194;18.948;2023-01-19T11:36:00;41;36;23
24012;PMS7003;12220;50.194;18.948;2023-01-19T11:38:17;45;36;22
24012;PMS7003;12220;50.194;18.948;2023-01-19T11:40:22;45;32;20
24012;PMS7003;12220;50.194;18.948;2023-01-19T11:42:24;35;30;20
24012;PMS7003;12220;50.194;18.948;2023-01-19T11:46:42;40;33;20
24012;PMS7003;12220;50.194;18.948;2023-01-19T11:48:55;45;36;20
24012;PMS7003;12220;50.194;18.948;2023-01-19T11:51:15;39;32;21
24012;PMS7003;12220;50.194;18.948;2023-01-19T11:53:22;45;36;22
24012;PMS7003;12220;50.194;18.948;2023-01-19T11:55:32;36;28;20
24012;PMS7003;12220;50.194;18.948;2023-01-19T11:57:46;48;37;21
24012;PMS7003;12220;50.194;18.948;2023-01-19T11:59:50;39;29;19
24012;PMS7003;12220;50.194;18.948;2023-01-19T12:01:56;45;35;22
24012;PMS7003;12220;50.194;18.948;2023-01-19T12:04:05;46;31;18
24012;PMS7003;12220;50.194;18.948;2023-01-19T12:06:18;48;37;23
24012;PMS7003;12220;50.194;18.948;2023-01-19T12:08:26;50;39;24
24012;PMS7003;12220;50.194;18.948;2023-01-19T12:10:38;50;37;22
24012;PMS7003;12220;50.194;18.948;2023-01-19T12:12:44;49;31;20
24012;PMS7003;12220;50.194;18.948;2023-01-19T12:17:03;43;35;22
24012;PMS7003;12220;50.194;18.948;2023-01-19T12:21:21;51;36;23
24012;PMS7003;12220;50.194;18.948;2023-01-19T12:28:05;42;35;19
24012;PMS7003;12220;50.194;18.948;2023-01-19T12:30:17;40;31;19
24012;PMS7003;12220;50.194;18.948;2023-01-19T12:32:31;47;38;21
24012;PMS7003;12220;50.194;18.948;2023-01-19T12:34:40;47;37;21
24012;PMS7003;12220;50.194;18.948;2023-01-19T12:36:49;50;38;23
24012;PMS7003;12220;50.194;18.948;2023-01-19T12:38:52;42;34;22
24012;PMS7003;12220;50.194;18.948;2023-01-19T12:43:13;39;32;20
24012;PMS7003;12220;50.194;18.948;2023-01-19T12:45:21;42;36;23
24012;PMS7003;12220;50.194;18.948;2023-01-19T12:47:25;43;31;19
24012;PMS7003;12220;50.194;18.948;2023-01-19T12:51:38;48;35;21
24012;PMS7003;12220;50.194;18.948;2023-01-19T12:53:43;35;27;20
24012;PMS7003;12220;50.194;18.948;2023-01-19T12:55:58;40;31;20
24012;PMS7003;12220;50.194;18.948;2023-01-19T12:58:06;45;33;19
24012;PMS7003;12220;50.194;18.948;2023-01-19T13:02:30;38;29;20
24012;PMS7003;12220;50.194;18.948;2023-01-19T13:04:40;37;27;18
24012;PMS7003;12220;50.194;18.948;2023-01-19T13:07:04;42;29;20
24012;PMS7003;12220;50.194;18.948;2023-01-19T13:11:23;40;34;19
24012;PMS7003;12220;50.194;18.948;2023-01-19T13:15:36;39;33;20
24012;PMS7003;12220;50.194;18.948;2023-01-19T13:19:52;41;33;21
24012;PMS7003;12220;50.194;18.948;2023-01-19T13:24:24;33;31;17
24012;PMS7003;12220;50.194;18.948;2023-01-19T13:26:53;26;25;17
24012;PMS7003;12220;50.194;18.948;2023-01-19T13:33:54;43;34;21
24012;PMS7003;12220;50.194;18.948;2023-01-19T13:35:59;48;34;17
24012;PMS7003;12220;50.194;18.948;2023-01-19T13:38:01;36;32;21
24012;PMS7003;12220;50.194;18.948;2023-01-19T13:40:04;30;28;19
24012;PMS7003;12220;50.194;18.948;2023-01-19T13:42:12;43;35;23
24012;PMS7003;12220;50.194;18.948;2023-01-19T13:46:49;38;32;20
24012;PMS7003;12220;50.194;18.948;2023-01-19T13:48:57;36;31;20
24012;PMS7003;12220;50.194;18.948;2023-01-19T13:51:04;31;25;15
24012;PMS7003;12220;50.194;18.948;2023-01-19T13:55:21;34;29;18
24012;PMS7003;12220;50.194;18.948;2023-01-19T13:57:33;36;29;19
24012;PMS7003;12220;50.194;18.948;2023-01-19T14:02:12;35;28;17
24012;PMS7003;12220;50.194;18.948;2023-01-19T14:04:33;28;27;19
24012;PMS7003;12220;50.194;18.948;2023-01-19T14:06:39;44;32;21
24012;PMS7003;12220;50.194;18.948;2023-01-19T14:08:45;32;29;19
24012;PMS7003;12220;50.194;18.948;2023-01-19T14:13:03;31;28;16
24012;PMS7003;12220;50.194;18.948;2023-01-19T14:15:12;33;30;17
24012;PMS7003;12220;50.194;18.948;2023-01-19T14:19:26;23;21;15
24012;PMS7003;12220;50.194;18.948;2023-01-19T14:21:38;23;22;15
24012;PMS7003;12220;50.194;18.948;2023-01-19T14:26:00;25;20;14
24012;PMS7003;12220;50.194;18.948;2023-01-19T14:30:38;35;31;21
24012;PMS7003;12220;50.194;18.948;2023-01-19T14:32:45;37;32;20
24012;PMS7003;12220;50.194;18.948;2023-01-19T14:34:48;28;24;18
24012;PMS7003;12220;50.194;18.948;2023-01-19T14:36:56;34;30;18
24012;PMS7003;12220;50.194;18.948;2023-01-19T14:39:02;34;29;19
24012;PMS7003;12220;50.194;18.948;2023-01-19T14:43:41;32;30;19
24012;PMS7003;12220;50.194;18.948;2023-01-19T14:48:29;31;28;18
24012;PMS7003;12220;50.194;18.948;2023-01-19T14:50:41;25;22;14
24012;PMS7003;12220;50.194;18.948;2023-01-19T14:52:47;29;26;18
24012;PMS7003;12220;50.194;18.948;2023-01-19T14:54:55;22;19;15
24012;PMS7003;12220;50.194;18.948;2023-01-19T14:56:59;35;26;18